CPR weather

Casper-Natrona County International Airport
Casper, Wyoming, United States

Public forecast

Using degrees Fahrenheit for public forecast. Weather courtesy of forecast.io.

METAR (pilot weather report)

Retrieved 2019/06/25 05:53 UTC (59 minutes ago):

KCPR 250553Z AUTO 36005KT 10SM CLR 08/07 A2999 RMK AO2 SLP109 T00830072 10244 20083 51025 $

TAF (pilot weather forecast)

Retrieved 2019/06/25 06:30 UTC (22 minutes ago):

TAF KCPR 250528Z 2506/2606 05006KT P6SM FEW110 FM251100 VRB05KT P6SM FEW110 FM251500 25010KT P6SM FEW110 FM251800 25015G25KT P6SM SCT100 FM260100 24011G20KT P6SM VCSH BKN100 FM260300 24010KT P6SM SCT100